Alcains, Portugal
Current Conditions -  °F | °C
As of 7:00 AM on Saturday 20 Dec 2014 (Local Time) from LPMR Reporting Station
Few Clouds Few Clouds  
Wind Chill: 32°   Ceiling: Unl
Heat Index: 32°   Visibility: 3mi
Dew Point: 32°   Wind: 2mph
Humidity: 100%   Direction: 170°S
Pressure: 30.53"   Gusts: NA
Location:  39.92°N, 7.46°W
Report Text: LPMR 200800Z 17002KT 5000 FEW030 M00/M00 Q1034
Loading
Personal Weather Stations






























Interactive Weather Map New forecast layout! Learn more

10-Day Weather Forecast

Advertisements
Track Severe Weather on mobile